• Join FlightAware (Why Join?)
  • Login
  • US Flag 
08:30AM EDT


 

Airport Tracker/Info


-or-


 

Live Flight TrackerFlight Track Log ✈ USC105 ✈ 10-Apr-2013 ✈ KDPA - KYIP

Flight Track Log - Related Links

Times and Time Zones

All times are in EDT time to prevent confusion due to time zone crossing. See the USC105 flight status page for this flight to view local times or setup timezone preferences in your user account.

Time Position Orientation Groundspeed Altitude Reporting Facility
EDT Latitude Longitude Course Direction KTS MPH feet Rate Location/Type
05:53AM 41.8667 -88.2167 153° Southeast 100 115 3,700  Level Chicago TRACON
05:54AM 41.8500 -88.1833 124° Southeast 150 173 4,600 720 Climbing Chicago TRACON
05:55AM 41.8667 -88.1167 71° East 180 207 5,200 600 Climbing Chicago TRACON
05:56AM 41.8667 -88.0500 90° East 183 211 5,800 600 Climbing Chicago TRACON
05:57AM 41.8667 -87.9833 90° East 184 212 6,500 600 Climbing Chicago TRACON
05:58AM 41.9468 -87.8029 153° Southeast  Level Estimated
05:58AM 41.8833 -87.9167 71° East 197 227 7,000  Level Chicago TRACON
05:59AM 41.8833 -87.8333 90° East 221 254 7,100  Climbing Chicago TRACON
06:00AM 41.9000 -87.7500 75° East 224 258 7,100 -60 Level Chicago TRACON
06:01AM 41.9000 -87.6667 90° East 221 254 7,000 -60 Descending Chicago TRACON
06:02AM 41.9167 -87.5833 75° East 222 255 7,000  Level Chicago TRACON
06:03AM 41.9167 -87.5000 90° East 220 253 7,000  Level Chicago TRACON
06:04AM 41.9333 -87.4333 71° East 219 252 7,000  Level Chicago TRACON
06:05AM 41.9333 -87.3500 90° East 216 249 7,000  Level Chicago TRACON
06:06AM 41.9425 -87.2819 80° East 219 252 7,000  Level Chicago Center
06:07AM 41.9506 -87.2025 82° East 217 250 7,000  Level Chicago Center
06:08AM 41.9575 -87.1231 83° East 215 247 7,000 -60 Level Chicago Center
06:09AM 41.9653 -87.0442 82° East 215 247 6,900 -60 Descending Chicago Center
06:10AM 41.9725 -86.9658 83° East 213 245 6,900  Level Chicago Center
06:11AM 41.9797 -86.8867 83° East 215 247 6,900  Level Chicago Center
06:12AM 41.9864 -86.8081 83° East 214 246 6,900  Level Chicago Center
06:13AM 41.9953 -86.7303 81° East 213 245 6,900  Level Chicago Center
06:14AM 42.0017 -86.6539 84° East 217 250 6,900  Level Chicago Center
06:15AM 42.0081 -86.5750 84° East 214 246 6,900  Level Chicago Center
06:16AM 42.0167 -86.4797 83° East 215 247 6,900  Level Chicago Center
06:17AM 42.0239 -86.4003 83° East 215 247 6,900  Level Chicago Center
06:18AM 42.0314 -86.3189 83° East 218 251 6,900  Level Chicago Center
06:19AM 42.0375 -86.2381 84° East 218 251 6,900  Level Chicago Center
06:20AM 42.0447 -86.1572 83° East 217 250 6,900  Level Chicago Center
06:21AM 42.0525 -86.0764 83° East 218 251 6,900  Level Chicago Center
06:22AM 42.0583 -85.9947 84° East 219 252 6,900  Level Chicago Center
06:23AM 42.0658 -85.9136 83° East 219 252 6,900  Level Chicago Center
06:24AM 42.0719 -85.8325 84° East 219 252 6,900  Level Chicago Center
06:25AM 42.0792 -85.7511 83° East 219 252 6,900  Level Chicago Center
06:26AM 42.0864 -85.6675 83° East 222 255 6,900  Level Chicago Center
06:27AM 42.0928 -85.5847 84° East 222 255 6,900  Level Chicago Center
06:28AM 42.0989 -85.5017 84° East 223 257 6,900  Level Chicago Center
06:29AM 42.1058 -85.4183 84° East 224 258 6,900  Level Chicago Center
06:30AM 42.1125 -85.3344 84° East 225 259 6,900  Level Chicago Center
06:31AM 42.1194 -85.2503 84° East 225 259 6,900  Level Chicago Center
06:32AM 42.1261 -85.1661 84° East 226 260 6,900  Level Chicago Center
06:33AM 42.1333 -85.0814 83° East 227 261 6,900 -60 Level Chicago Center
06:34AM 42.1386 -84.9964 85° East 227 261 6,800 -60 Descending Chicago Center
06:35AM 42.1453 -84.9103 84° East 229 264 6,800  Level Chicago Center
06:36AM 42.1517 -84.8256 84° East 229 264 6,800  Level Chicago Center
06:37AM 42.1581 -84.7406 84° East 228 262 6,800  Level Chicago Center
06:38AM 42.1644 -84.6547 84° East 229 264 6,800  Level Chicago Center
06:39AM 42.1708 -84.5681 84° East 231 266 6,800 -360 Level Chicago Center
06:40AM 42.1761 -84.4742 86° East 237 273 6,100 -600 Descending Chicago Center
06:41AM 42.1833 -84.3814 84° East 246 283 5,700 -600 Descending Chicago Center
06:42AM 42.1908 -84.2919 84° East 249 287 5,000 -480 Descending Chicago Center
06:43AM 42.1972 -84.2022 84° East 246 283 4,800 -60 Descending Chicago Center
06:44AM 42.2044 -84.0928 85° East 230 265 4,900  Climbing Cleveland Center
06:45AM 42.2047 -84.0089 90° East 221 254 4,900  Level Cleveland Center
06:46AM 42.1906 -83.9239 103° East 218 251 4,900 -60 Level Cleveland Center
06:47AM 42.1781 -83.8589 105° East 215 247 4,800 -600 Descending Cleveland Center
06:48AM 42.1447 -83.7842 121° Southeast 221 254 3,800 -900 Descending Cleveland Center
06:49AM 42.1219 -83.7019 110° East 215 247 2,900 -660 Descending Cleveland Center
06:50AM 42.1631 -83.6422 47° Northeast 181 208 2,500 -420 Descending Cleveland Center
06:51AM 42.1892 -83.6014 49° Northeast 150 173 2,100 -660 Descending Cleveland Center
06:52AM 42.2150 -83.5664 45° Northeast 119 137 1,300 -900 Descending Cleveland Center
06:54AM 42.2333 -83.5167 86° East  Level FlightAware Approximate
07:01AM 42.2393 -83.5310 86° East  Level Estimated
07:02AM 42.2393 -83.5310 86° East  Level Estimated